Time;durP1;ratioP1;P1;durP2;ratioP2;P2;SDS_P1;SDS_P2;PMS_P1;PMS_P2;Temp;Humidity;BMP_temperature;BMP_pressure;BME280_temperature;BME280_humidity;BME280_pressure;Samples;Min_cycle;Max_cycle;Signal;HPM_P1;HPM_P2
2022/04/18 00:02:07;;;;;;;2.17;2.00;;;5.90;97.30;;;;;;5131865;27;20490;-49
2022/04/18 00:04:35;;;;;;;2.63;2.33;;;6.00;97.10;;;;;;5132390;28;20919;-47
2022/04/18 00:07:04;;;;;;;3.73;2.90;;;5.90;97.10;;;;;;5131899;27;20524;-46
2022/04/18 00:09:33;;;;;;;2.70;2.47;;;5.70;97.10;;;;;;5132100;28;20560;-46
2022/04/18 00:12:00;;;;;;;2.93;2.63;;;5.80;97.30;;;;;;5131825;27;20501;-47
2022/04/18 00:14:27;;;;;;;5.80;3.00;;;5.80;97.30;;;;;;5132107;28;20443;-49
2022/04/18 00:16:54;;;;;;;2.83;2.37;;;5.90;97.30;;;;;;5132126;27;20490;-48
2022/04/18 00:19:21;;;;;;;2.70;2.50;;;5.90;97.50;;;;;;5131735;27;20533;-50
2022/04/18 00:21:48;;;;;;;3.17;2.77;;;5.90;97.30;;;;;;5131686;28;20473;-49
2022/04/18 00:24:17;;;;;;;4.63;3.10;;;5.90;97.30;;;;;;5131744;27;20621;-48
2022/04/18 00:26:44;;;;;;;2.70;2.50;;;5.80;97.10;;;;;;5131573;27;20506;-49
2022/04/18 00:29:11;;;;;;;2.47;2.27;;;5.80;97.00;;;;;;5131873;28;20485;-48
2022/04/18 00:31:39;;;;;;;2.30;2.20;;;5.80;97.30;;;;;;5132071;28;20457;-49
2022/04/18 00:34:06;;;;;;;3.23;2.67;;;5.60;96.80;;;;;;5131541;28;20478;-48
2022/04/18 00:36:34;;;;;;;2.60;2.30;;;5.30;97.40;;;;;;5131802;28;20516;-48
2022/04/18 00:39:01;;;;;;;4.50;3.50;;;5.40;97.80;;;;;;5131129;27;20457;-48
2022/04/18 00:41:29;;;;;;;2.30;2.10;;;5.30;97.80;;;;;;5131545;27;20513;-48
2022/04/18 00:43:56;;;;;;;2.63;2.33;;;5.30;98.00;;;;;;5131579;28;20433;-48
2022/04/18 00:46:23;;;;;;;2.60;2.30;;;5.30;97.90;;;;;;5132466;27;20489;-49
2022/04/18 00:48:50;;;;;;;2.90;2.70;;;5.00;98.30;;;;;;5135451;27;20530;-48
2022/04/18 00:51:21;;;;;;;2.50;2.30;;;4.90;98.70;;;;;;5135365;27;20920;-48
2022/04/18 00:53:51;;;;;;;2.73;2.53;;;4.70;98.70;;;;;;5135323;27;20440;-49
2022/04/18 00:56:19;;;;;;;4.20;2.53;;;4.50;99.00;;;;;;5135702;27;20441;-49
2022/04/18 00:58:49;;;;;;;3.80;2.73;;;4.10;99.60;;;;;;5135064;27;20453;-49
2022/04/18 01:01:16;;;;;;;3.73;2.17;;;4.20;99.90;;;;;;5135165;27;20477;-48
2022/04/18 01:03:44;;;;;;;3.30;3.07;;;4.50;99.90;;;;;;5135532;27;20447;-49
2022/04/18 01:06:11;;;;;;;4.40;3.00;;;5.00;99.30;;;;;;5135184;27;20962;-48
2022/04/18 01:08:38;;;;;;;3.40;2.83;;;5.20;98.90;;;;;;5134852;27;20480;-49
2022/04/18 01:11:06;;;;;;;2.90;2.63;;;5.20;98.80;;;;;;5135253;27;20562;-48
2022/04/18 01:13:41;;;;;;;2.90;2.70;;;5.20;99.10;;;;;;5134638;27;20443;-49
2022/04/18 01:16:10;;;;;;;3.37;3.07;;;5.30;98.60;;;;;;5135058;27;20528;-48
2022/04/18 01:18:36;;;;;;;5.47;4.97;;;5.20;98.80;;;;;;5135192;27;20465;-48
2022/04/18 01:21:05;;;;;;;5.10;3.67;;;5.40;98.60;;;;;;5135014;27;20913;-48
2022/04/18 01:23:32;;;;;;;4.30;3.13;;;5.40;98.60;;;;;;5134736;27;20875;-49
2022/04/18 01:29:00;;;;;;;3.37;3.07;;;4.60;99.40;;;;;;5134804;27;20472;-48
2022/04/18 01:31:28;;;;;;;3.57;2.83;;;5.00;99.60;;;;;;5134552;27;20564;-48
2022/04/18 01:33:55;;;;;;;3.10;2.80;;;5.10;99.20;;;;;;5134629;27;20437;-48
2022/04/18 01:36:23;;;;;;;2.70;2.43;;;5.20;98.80;;;;;;5134580;27;20811;-48
2022/04/18 01:38:50;;;;;;;2.67;2.47;;;5.00;98.70;;;;;;5134238;27;20931;-49
2022/04/18 01:41:18;;;;;;;3.07;2.87;;;4.80;98.20;;;;;;5134332;27;20461;-48
2022/04/18 01:43:45;;;;;;;2.43;2.23;;;4.90;98.70;;;;;;5134425;27;20445;-48
2022/04/18 01:46:12;;;;;;;2.73;2.20;;;4.80;98.70;;;;;;5134245;27;20473;-49
2022/04/18 01:48:39;;;;;;;2.40;2.20;;;4.80;98.70;;;;;;5134661;27;20440;-49
2022/04/18 01:51:06;;;;;;;5.27;2.47;;;4.50;98.70;;;;;;5134326;27;20568;-49
2022/04/18 01:53:34;;;;;;;2.67;2.47;;;4.50;99.30;;;;;;5134235;27;20804;-48
2022/04/18 01:56:01;;;;;;;2.47;2.10;;;4.50;99.50;;;;;;5134323;27;20441;-50
2022/04/18 01:58:28;;;;;;;2.23;1.90;;;4.40;99.50;;;;;;5133875;27;20471;-48
2022/04/18 02:00:55;;;;;;;3.73;2.80;;;4.10;99.70;;;;;;5133883;27;20540;-48
2022/04/18 02:03:22;;;;;;;2.30;2.10;;;4.00;99.90;;;;;;5133944;27;20444;-48
2022/04/18 02:05:52;;;;;;;3.40;2.40;;;3.90;99.90;;;;;;5134280;27;20450;-48
2022/04/18 02:08:20;;;;;;;2.50;2.30;;;3.80;99.90;;;;;;5133911;27;20440;-48
2022/04/18 02:10:48;;;;;;;3.43;3.13;;;3.60;99.90;;;;;;5133957;27;20851;-48
2022/04/18 02:13:15;;;;;;;3.40;3.20;;;3.90;99.90;;;;;;5134063;27;20476;-47
2022/04/18 02:15:43;;;;;;;6.40;3.93;;;4.00;99.90;;;;;;5135221;27;20468;-48
2022/04/18 02:18:10;;;;;;;4.33;3.97;;;3.80;99.90;;;;;;5134734;27;20445;-46
2022/04/18 02:20:37;;;;;;;5.07;3.70;;;3.40;99.90;;;;;;5134171;27;20497;-49
2022/04/18 02:23:04;;;;;;;4.60;3.80;;;3.00;99.90;;;;;;5133381;27;20448;-48
2022/04/18 02:25:31;;;;;;;4.50;4.10;;;2.70;99.90;;;;;;5133912;27;20437;-49
2022/04/18 02:27:59;;;;;;;4.43;4.03;;;2.90;99.90;;;;;;5134756;27;20527;-46
2022/04/18 02:30:26;;;;;;;4.17;3.87;;;2.90;99.90;;;;;;5133776;27;21036;-45
2022/04/18 02:32:53;;;;;;;8.10;4.53;;;3.00;99.90;;;;;;5133720;27;20464;-47
2022/04/18 02:35:22;;;;;;;4.70;4.33;;;3.00;99.90;;;;;;5134185;27;20512;-46
2022/04/18 02:37:50;;;;;;;4.73;4.33;;;2.60;99.90;;;;;;5134056;27;20478;-46
2022/04/18 02:40:18;;;;;;;6.40;5.47;;;2.40;99.90;;;;;;5132999;27;20468;-48
2022/04/18 02:42:45;;;;;;;6.20;5.00;;;2.20;99.90;;;;;;5133556;27;20465;-49
2022/04/18 02:45:15;;;;;;;6.27;5.67;;;2.20;99.90;;;;;;5133518;27;20473;-49
2022/04/18 02:47:42;;;;;;;7.13;4.47;;;2.10;99.90;;;;;;5133224;27;20453;-49
2022/04/18 02:50:10;;;;;;;6.53;4.37;;;2.20;99.90;;;;;;5133056;27;20540;-50
2022/04/18 02:52:37;;;;;;;5.43;4.93;;;2.20;99.90;;;;;;5132996;27;20479;-50
2022/04/18 02:55:04;;;;;;;4.60;4.20;;;2.10;99.90;;;;;;5133219;27;20445;-48
2022/04/18 02:57:31;;;;;;;5.27;4.70;;;2.00;99.90;;;;;;5132978;27;20963;-49
2022/04/18 02:59:58;;;;;;;7.90;4.90;;;2.10;99.90;;;;;;5132734;27;20857;-47
2022/04/18 03:02:27;;;;;;;5.40;3.93;;;2.40;99.90;;;;;;5133198;27;20447;-48
2022/04/18 03:04:54;;;;;;;4.57;4.20;;;2.30;99.90;;;;;;5132828;27;20438;-47
2022/04/18 03:07:21;;;;;;;4.67;3.73;;;2.20;99.90;;;;;;5132722;27;20443;-47
2022/04/18 03:09:48;;;;;;;4.40;4.00;;;2.20;99.90;;;;;;5132395;27;20752;-47
2022/04/18 03:12:14;;;;;;;3.67;3.33;;;1.90;99.90;;;;;;5132699;27;20506;-47
2022/04/18 03:14:41;;;;;;;4.17;3.87;;;2.10;99.90;;;;;;5132846;27;20434;-47
2022/04/18 03:17:09;;;;;;;4.47;4.07;;;2.60;99.90;;;;;;5132773;27;20964;-48
2022/04/18 03:19:38;;;;;;;5.00;3.83;;;3.00;99.90;;;;;;5132823;27;20818;-47
2022/04/18 03:22:05;;;;;;;5.77;4.43;;;3.30;99.90;;;;;;5133851;27;20451;-48
2022/04/18 03:24:33;;;;;;;5.03;3.90;;;3.70;99.90;;;;;;5132700;27;20522;-48
2022/04/18 03:27:01;;;;;;;3.93;3.63;;;3.90;99.90;;;;;;5133367;27;20936;-47
2022/04/18 03:29:28;;;;;;;6.13;4.07;;;4.10;99.90;;;;;;5132979;27;20507;-47
2022/04/18 03:31:55;;;;;;;4.60;4.20;;;4.20;99.90;;;;;;5132361;27;20474;-47
2022/04/18 03:34:22;;;;;;;5.00;3.73;;;4.30;99.90;;;;;;5132105;27;20440;-47
2022/04/18 03:39:54;;;;;;;4.90;4.50;;;4.30;99.90;;;;;;5132721;27;20509;-47
2022/04/18 03:42:29;;;;;;;3.33;3.13;;;4.30;99.90;;;;;;5136271;27;20479;-47
2022/04/18 03:44:57;;;;;;;3.60;2.90;;;4.30;99.90;;;;;;5134768;27;20539;-47
2022/04/18 03:47:25;;;;;;;3.50;3.10;;;4.10;99.90;;;;;;5134410;27;20868;-47
2022/04/18 03:49:52;;;;;;;3.97;3.67;;;4.10;99.90;;;;;;5132689;27;20441;-47
2022/04/18 03:52:21;;;;;;;3.50;3.20;;;4.20;99.90;;;;;;5132113;27;20510;-47
2022/04/18 03:54:48;;;;;;;3.33;3.10;;;4.20;99.90;;;;;;5132320;27;20453;-47
2022/04/18 03:57:15;;;;;;;3.30;3.00;;;4.20;99.90;;;;;;5132643;27;20449;-46
2022/04/18 03:59:42;;;;;;;3.00;2.70;;;4.00;99.90;;;;;;5132459;27;20441;-47
2022/04/18 04:02:09;;;;;;;3.60;3.30;;;3.70;99.90;;;;;;5132338;28;20466;-47
2022/04/18 04:04:37;;;;;;;3.50;3.20;;;3.40;99.90;;;;;;5132152;28;20443;-47
2022/04/18 04:07:05;;;;;;;3.43;3.13;;;3.70;99.90;;;;;;5132104;28;20450;-51
2022/04/18 04:09:34;;;;;;;3.57;3.27;;;3.80;99.90;;;;;;5131949;27;20804;-47
2022/04/18 04:12:03;;;;;;;3.67;3.17;;;3.90;99.90;;;;;;5132159;28;20532;-47
2022/04/18 04:14:30;;;;;;;4.37;3.80;;;4.00;99.90;;;;;;5132277;28;20433;-47
2022/04/18 04:16:56;;;;;;;4.97;4.00;;;4.10;99.90;;;;;;5132582;28;20468;-47
2022/04/18 04:19:23;;;;;;;3.20;2.90;;;4.00;99.90;;;;;;5132150;28;20437;-47
2022/04/18 04:21:50;;;;;;;3.70;3.40;;;4.10;99.90;;;;;;5135697;27;20744;-48
2022/04/18 04:24:17;;;;;;;3.17;2.70;;;4.10;99.90;;;;;;5136492;27;20471;-47
2022/04/18 04:26:46;;;;;;;3.93;3.00;;;4.10;99.90;;;;;;5136303;27;20498;-47
2022/04/18 04:29:13;;;;;;;3.90;3.50;;;4.10;99.90;;;;;;5136690;27;20514;-47
2022/04/18 04:31:40;;;;;;;3.20;3.00;;;4.00;99.90;;;;;;5135996;27;20478;-47
2022/04/18 04:34:10;;;;;;;3.50;3.20;;;4.00;99.90;;;;;;5135808;27;20516;-47
2022/04/18 04:36:37;;;;;;;3.67;3.13;;;4.10;99.90;;;;;;5135805;27;20441;-47
2022/04/18 04:39:04;;;;;;;4.00;3.70;;;4.00;99.90;;;;;;5135871;27;20997;-47
2022/04/18 04:41:31;;;;;;;4.33;3.70;;;4.10;99.90;;;;;;5136231;27;20483;-47
2022/04/18 04:43:59;;;;;;;4.10;3.27;;;4.10;99.90;;;;;;5135775;27;20874;-47
2022/04/18 04:46:27;;;;;;;6.83;4.90;;;3.90;99.90;;;;;;5135536;27;20440;-48
2022/04/18 04:48:54;;;;;;;4.90;4.40;;;4.00;99.90;;;;;;5136024;27;20490;-48
2022/04/18 04:51:21;;;;;;;5.00;3.97;;;4.00;99.90;;;;;;5135787;27;20512;-47
2022/04/18 04:53:48;;;;;;;4.50;3.30;;;4.00;99.90;;;;;;5135657;27;20469;-49
2022/04/18 04:56:16;;;;;;;3.20;2.90;;;4.00;99.90;;;;;;5135980;27;20947;-47
2022/04/18 04:58:43;;;;;;;3.37;2.87;;;3.70;99.90;;;;;;5135561;27;20561;-47
2022/04/18 05:01:12;;;;;;;3.93;3.63;;;3.00;99.90;;;;;;5135131;27;20458;-47
2022/04/18 05:03:39;;;;;;;4.97;3.10;;;2.60;99.90;;;;;;5135127;27;20492;-48
2022/04/18 05:06:07;;;;;;;2.90;2.70;;;2.70;99.90;;;;;;5135193;27;20953;-47
2022/04/18 05:08:34;;;;;;;3.97;3.67;;;3.10;99.90;;;;;;5135702;27;20446;-47
2022/04/18 05:11:01;;;;;;;3.03;2.63;;;3.30;99.90;;;;;;5135451;27;20525;-47
2022/04/18 05:13:28;;;;;;;4.17;3.20;;;3.60;99.90;;;;;;5135137;27;20443;-47
2022/04/18 05:15:55;;;;;;;2.77;2.57;;;3.80;99.90;;;;;;5135237;27;20442;-47
2022/04/18 05:18:23;;;;;;;3.07;2.83;;;3.80;99.90;;;;;;5135412;27;20476;-48
2022/04/18 05:20:50;;;;;;;2.33;2.13;;;4.00;99.90;;;;;;5134968;27;20470;-48
2022/04/18 05:23:20;;;;;;;3.40;2.77;;;3.90;99.90;;;;;;5135222;27;20482;-47
2022/04/18 05:25:46;;;;;;;3.93;2.73;;;3.90;99.90;;;;;;5135498;27;20442;-47
2022/04/18 05:28:13;;;;;;;5.20;2.83;;;3.90;99.90;;;;;;5135476;27;20551;-47
2022/04/18 05:30:41;;;;;;;3.70;3.40;;;4.00;99.90;;;;;;5134606;27;20974;-48
2022/04/18 05:33:08;;;;;;;3.77;3.50;;;4.00;99.90;;;;;;5134067;27;20870;-47
2022/04/18 05:35:36;;;;;;;3.27;2.97;;;4.10;99.90;;;;;;5134842;27;20933;-48
2022/04/18 05:38:03;;;;;;;3.30;3.00;;;4.10;99.90;;;;;;5134752;27;20535;-47
2022/04/18 05:40:31;;;;;;;4.30;3.93;;;4.20;99.90;;;;;;5135217;27;20488;-47
2022/04/18 05:42:58;;;;;;;4.50;3.53;;;4.10;99.90;;;;;;5134651;27;20495;-47
2022/04/18 05:45:25;;;;;;;3.80;3.40;;;3.80;99.90;;;;;;5134453;27;20868;-47
2022/04/18 05:47:52;;;;;;;3.87;3.47;;;4.00;99.90;;;;;;5134517;27;21001;-48
2022/04/18 05:50:20;;;;;;;3.77;3.47;;;4.10;99.90;;;;;;5134293;27;20519;-47
2022/04/18 05:52:49;;;;;;;4.63;4.20;;;4.20;99.90;;;;;;5134136;27;20479;-47
2022/04/18 05:55:15;;;;;;;3.90;3.53;;;4.30;99.90;;;;;;5134617;27;20757;-47
2022/04/18 05:57:42;;;;;;;5.07;3.30;;;4.40;99.90;;;;;;5134655;27;20964;-47
2022/04/18 06:00:10;;;;;;;12.07;3.90;;;4.40;99.90;;;;;;5134237;27;20464;-47
2022/04/18 06:02:37;;;;;;;3.63;3.33;;;4.50;99.90;;;;;;5134065;27;20435;-48
2022/04/18 06:05:04;;;;;;;5.80;4.87;;;4.60;99.90;;;;;;5134588;27;20484;-47
2022/04/18 06:07:32;;;;;;;4.13;3.30;;;4.50;99.90;;;;;;5134069;27;20688;-47
2022/04/18 06:10:00;;;;;;;4.37;3.97;;;4.50;99.90;;;;;;5134077;27;20987;-47
2022/04/18 06:12:27;;;;;;;5.53;4.17;;;4.40;99.90;;;;;;5133614;27;21013;-48
2022/04/18 06:14:55;;;;;;;4.27;3.50;;;4.30;99.90;;;;;;5133855;27;20527;-47
2022/04/18 06:17:21;;;;;;;7.33;3.27;;;4.00;99.90;;;;;;5134210;27;20563;-48
2022/04/18 06:19:49;;;;;;;4.00;3.63;;;4.00;99.90;;;;;;5135674;27;20482;-47
2022/04/18 06:22:16;;;;;;;4.70;4.30;;;4.20;99.90;;;;;;5135135;27;20440;-49
2022/04/18 06:24:43;;;;;;;4.83;4.43;;;4.30;99.90;;;;;;5134401;27;20444;-47
2022/04/18 06:27:11;;;;;;;4.60;4.20;;;4.30;99.90;;;;;;5134479;27;20490;-47
2022/04/18 06:29:39;;;;;;;4.40;4.00;;;4.40;99.90;;;;;;5133833;27;20542;-48
2022/04/18 06:32:07;;;;;;;5.20;4.80;;;4.50;99.90;;;;;;5133911;27;20504;-47
2022/04/18 06:34:34;;;;;;;6.63;5.40;;;4.50;99.90;;;;;;5133481;27;20440;-47
2022/04/18 06:37:01;;;;;;;5.87;5.17;;;4.40;99.90;;;;;;5133605;27;20871;-46
2022/04/18 06:39:27;;;;;;;5.23;4.83;;;4.50;99.90;;;;;;5133896;27;20929;-47
2022/04/18 06:41:55;;;;;;;4.90;4.13;;;4.50;99.90;;;;;;5133664;27;20519;-47
2022/04/18 06:44:24;;;;;;;5.40;4.90;;;4.10;99.90;;;;;;5132103;27;20533;-47
2022/04/18 06:46:51;;;;;;;4.53;4.13;;;3.60;99.90;;;;;;5133726;27;20496;-47
2022/04/18 06:49:18;;;;;;;5.90;4.50;;;4.00;99.90;;;;;;5133368;27;20443;-48
2022/04/18 06:51:44;;;;;;;5.63;5.13;;;3.60;99.90;;;;;;5133332;27;20570;-47
2022/04/18 06:54:11;;;;;;;5.10;4.73;;;3.70;99.90;;;;;;5132969;27;20867;-47
2022/04/18 06:59:24;;;;;;;4.73;4.23;;;4.00;99.90;;;;;;5133173;27;20788;-47
2022/04/18 07:01:51;;;;;;;4.13;3.73;;;3.80;99.90;;;;;;5132789;27;20454;-47
2022/04/18 07:04:18;;;;;;;3.77;3.53;;;3.50;99.90;;;;;;5132837;27;20444;-47
2022/04/18 07:06:45;;;;;;;7.43;5.80;;;3.60;99.90;;;;;;5132726;27;20867;-47
2022/04/18 07:09:12;;;;;;;4.37;3.60;;;3.80;99.90;;;;;;5132530;27;20466;-47
2022/04/18 07:11:40;;;;;;;11.67;9.60;;;4.10;99.90;;;;;;5132632;27;20574;-48
2022/04/18 07:14:07;;;;;;;8.70;6.67;;;4.50;99.90;;;;;;5132393;27;20451;-47
2022/04/18 07:16:35;;;;;;;5.40;4.90;;;4.90;99.90;;;;;;5132664;27;20452;-47
2022/04/18 07:19:02;;;;;;;4.67;4.20;;;5.30;99.90;;;;;;5132498;27;20931;-48
2022/04/18 07:21:30;;;;;;;5.07;4.57;;;5.10;99.90;;;;;;5132584;27;20520;-47
2022/04/18 07:23:57;;;;;;;4.83;4.43;;;5.30;99.90;;;;;;5132486;27;20533;-47
2022/04/18 07:26:24;;;;;;;4.23;3.80;;;5.30;99.90;;;;;;5132491;27;20450;-48
2022/04/18 07:28:51;;;;;;;3.77;3.47;;;5.50;99.90;;;;;;5133115;27;20436;-47
2022/04/18 07:31:18;;;;;;;3.60;3.30;;;5.70;99.90;;;;;;5132801;27;20458;-49
2022/04/18 07:33:46;;;;;;;4.07;3.70;;;5.60;99.90;;;;;;5132331;27;20458;-48
2022/04/18 07:36:13;;;;;;;4.07;3.73;;;5.50;99.90;;;;;;5132597;27;20521;-47
2022/04/18 07:38:52;;;;;;;4.07;3.60;;;5.70;99.90;;;;;;5132335;27;20512;-47
2022/04/18 07:41:21;;;;;;;4.90;3.60;;;5.80;99.90;;;;;;5132310;27;20507;-47
2022/04/18 07:43:48;;;;;;;5.23;4.60;;;5.80;99.90;;;;;;5131947;27;20432;-48
2022/04/18 07:46:16;;;;;;;3.87;3.47;;;6.00;99.90;;;;;;5132143;27;20870;-47
2022/04/18 07:48:44;;;;;;;4.13;3.70;;;5.80;99.90;;;;;;5132149;27;20445;-48
2022/04/18 07:53:57;;;;;;;4.20;3.90;;;6.10;99.90;;;;;;5132224;27;20421;-47
2022/04/18 07:56:25;;;;;;;3.80;3.50;;;6.20;99.90;;;;;;5131964;27;20465;-48
2022/04/18 07:58:52;;;;;;;3.27;2.97;;;6.30;99.90;;;;;;5131793;27;20994;-45
2022/04/18 08:01:20;;;;;;;3.40;3.10;;;6.50;99.90;;;;;;5132128;28;20514;-45
2022/04/18 08:03:47;;;;;;;3.47;3.17;;;6.80;99.90;;;;;;5132026;28;20457;-46
2022/04/18 08:06:16;;;;;;;3.77;3.47;;;6.80;99.90;;;;;;5132254;27;20524;-48
2022/04/18 08:08:43;;;;;;;4.10;3.60;;;6.90;99.90;;;;;;5131616;28;20434;-46
2022/04/18 08:11:11;;;;;;;2.93;2.73;;;7.20;99.90;;;;;;5132031;27;20538;-45
2022/04/18 08:13:40;;;;;;;3.43;3.13;;;7.20;99.90;;;;;;5131410;27;20480;-47
2022/04/18 08:16:08;;;;;;;3.20;3.00;;;7.60;99.90;;;;;;5131818;27;20448;-48
2022/04/18 08:18:38;;;;;;;2.70;2.50;;;8.20;99.90;;;;;;5131547;27;20502;-46
2022/04/18 08:21:06;;;;;;;5.17;3.37;;;9.40;98.80;;;;;;5131971;28;20477;-47
2022/04/18 08:23:34;;;;;;;5.70;2.90;;;10.30;96.10;;;;;;5132111;28;20484;-48
2022/04/18 08:26:02;;;;;;;2.97;2.47;;;10.50;95.20;;;;;;5132090;28;20466;-47
2022/04/18 08:28:30;;;;;;;3.00;2.77;;;10.10;93.90;;;;;;5131812;28;20881;-47
2022/04/18 08:30:56;;;;;;;3.20;3.00;;;9.90;95.10;;;;;;5131754;28;20923;-48
2022/04/18 08:33:24;;;;;;;3.27;3.03;;;9.80;95.80;;;;;;5131279;27;20522;-48
2022/04/18 08:35:51;;;;;;;3.30;3.00;;;10.00;94.60;;;;;;5131758;27;21022;-48
2022/04/18 08:38:18;;;;;;;2.70;2.50;;;9.80;97.10;;;;;;5131688;27;20494;-47
2022/04/18 08:40:50;;;;;;;5.63;2.63;;;9.60;95.90;;;;;;5131845;27;20489;-48
2022/04/18 08:43:18;;;;;;;3.00;2.80;;;10.10;95.00;;;;;;5131573;28;20954;-48
2022/04/18 08:45:45;;;;;;;3.40;3.10;;;10.60;93.90;;;;;;5131889;28;20501;-48
2022/04/18 08:53:43;;;;;;;5.13;4.13;;;10.90;95.20;;;;;;5131683;27;20595;-49
2022/04/18 08:56:11;;;;;;;3.27;2.97;;;11.30;95.40;;;;;;5131636;27;20476;-50
2022/04/18 08:58:38;;;;;;;3.37;3.07;;;11.30;93.40;;;;;;5131686;27;20532;-48
2022/04/18 09:01:05;;;;;;;3.27;2.90;;;10.90;93.00;;;;;;5131499;28;20552;-49
2022/04/18 09:03:32;;;;;;;3.67;3.07;;;11.10;92.20;;;;;;5131364;27;20520;-49
2022/04/18 09:06:08;;;;;;;3.30;3.00;;;11.50;92.20;;;;;;5131664;28;20456;-48
2022/04/18 09:08:42;;;;;;;3.10;2.90;;;11.80;93.30;;;;;;5134036;27;20464;-48
2022/04/18 09:11:09;;;;;;;3.07;2.83;;;11.70;92.00;;;;;;5134788;27;20490;-48
2022/04/18 09:13:43;;;;;;;3.40;3.10;;;11.60;92.00;;;;;;5134786;27;20513;-48
2022/04/18 09:16:16;;;;;;;3.50;3.20;;;11.70;91.30;;;;;;5135240;27;20441;-48
2022/04/18 09:18:43;;;;;;;4.30;2.90;;;11.80;90.50;;;;;;5135164;27;20445;-48
2022/04/18 09:21:10;;;;;;;3.63;3.30;;;12.00;91.30;;;;;;5135838;27;20990;-48
2022/04/18 09:23:38;;;;;;;4.30;2.57;;;12.20;89.90;;;;;;5134922;27;20875;-49
2022/04/18 09:26:06;;;;;;;2.87;2.63;;;12.00;88.40;;;;;;5134748;27;20853;-48
2022/04/18 09:28:37;;;;;;;3.13;2.80;;;12.30;91.40;;;;;;5134899;27;20494;-48
2022/04/18 09:31:06;;;;;;;2.93;2.73;;;12.30;89.40;;;;;;5134818;27;20462;-48
2022/04/18 09:33:41;;;;;;;2.70;2.50;;;12.30;89.40;;;;;;5134297;27;20516;-48
2022/04/18 09:36:13;;;;;;;2.63;2.43;;;12.50;91.70;;;;;;5134852;27;20544;-49
2022/04/18 09:38:43;;;;;;;3.50;3.13;;;12.80;89.40;;;;;;5134454;27;20518;-48
2022/04/18 09:41:14;;;;;;;3.30;3.00;;;12.10;90.20;;;;;;5134469;27;20488;-48
2022/04/18 09:43:44;;;;;;;2.73;2.53;;;12.30;90.10;;;;;;5134449;27;20444;-50
2022/04/18 09:46:12;;;;;;;3.00;2.80;;;12.30;90.60;;;;;;5134627;27;20490;-48
2022/04/18 09:48:40;;;;;;;2.97;2.70;;;12.50;91.50;;;;;;5134323;27;20510;-49
2022/04/18 09:51:09;;;;;;;2.80;2.60;;;12.70;90.70;;;;;;5134553;27;20486;-48
2022/04/18 09:53:37;;;;;;;2.33;2.13;;;12.70;86.30;;;;;;5134182;27;20469;-48
2022/04/18 09:56:05;;;;;;;2.00;1.90;;;12.50;85.10;;;;;;5134476;27;20445;-48
2022/04/18 09:58:32;;;;;;;2.90;2.37;;;12.40;79.40;;;;;;5134253;27;20469;-50
2022/04/18 10:01:03;;;;;;;2.43;2.10;;;12.50;82.50;;;;;;5133920;27;20458;-48
2022/04/18 10:03:31;;;;;;;2.67;2.47;;;12.80;84.10;;;;;;5134190;27;20438;-48
2022/04/18 10:06:00;;;;;;;2.13;1.93;;;12.50;80.50;;;;;;5134333;27;20438;-48
2022/04/18 10:08:27;;;;;;;2.67;2.47;;;12.70;81.30;;;;;;5133713;27;20434;-49
2022/04/18 10:10:57;;;;;;;2.13;1.93;;;12.40;81.30;;;;;;5133838;27;20458;-48
2022/04/18 10:13:24;;;;;;;2.33;2.13;;;12.30;78.40;;;;;;5133450;27;20924;-49
2022/04/18 10:15:52;;;;;;;2.60;1.80;;;12.40;78.90;;;;;;5134011;27;20471;-48
2022/04/18 10:18:21;;;;;;;1.80;1.50;;;12.30;80.90;;;;;;5133349;27;20438;-49
2022/04/18 10:20:59;;;;;;;1.60;1.50;;;12.40;74.90;;;;;;5133549;27;20475;-48
2022/04/18 10:23:58;;;;;;;2.20;2.10;;;12.70;80.80;;;;;;5133881;27;20476;-48
2022/04/18 10:26:48;;;;;;;2.00;1.90;;;12.90;80.00;;;;;;5133568;27;20836;-48
2022/04/18 10:29:20;;;;;;;2.80;2.60;;;12.60;78.20;;;;;;5129942;27;20993;-49
2022/04/18 10:31:49;;;;;;;2.57;1.80;;;13.00;81.90;;;;;;5133849;27;20815;-47
2022/04/18 10:34:22;;;;;;;2.67;2.00;;;13.00;80.40;;;;;;5133368;27;20501;-50
2022/04/18 10:36:53;;;;;;;2.43;2.23;;;13.20;80.00;;;;;;5133573;27;20491;-48
2022/04/18 10:39:21;;;;;;;2.00;1.80;;;13.10;79.10;;;;;;5133175;27;20474;-48
2022/04/18 10:41:49;;;;;;;2.43;2.00;;;13.20;79.00;;;;;;5133410;27;20464;-48
2022/04/18 10:44:17;;;;;;;2.87;2.03;;;13.40;81.20;;;;;;5133030;27;20477;-48
2022/04/18 10:47:04;;;;;;;1.87;1.60;;;13.50;81.30;;;;;;5133425;27;20477;-49
2022/04/18 10:49:33;;;;;;;2.50;2.30;;;13.50;74.60;;;;;;5133130;27;20708;-49
2022/04/18 10:52:08;;;;;;;2.20;1.77;;;13.60;79.20;;;;;;5132896;27;20464;-48
2022/04/18 10:54:36;;;;;;;1.80;1.70;;;13.80;76.50;;;;;;5133203;27;20479;-50
2022/04/18 10:57:06;;;;;;;1.90;1.70;;;13.70;74.70;;;;;;5133201;27;20889;-48
2022/04/18 10:59:35;;;;;;;1.43;1.33;;;14.00;75.70;;;;;;5133501;27;20491;-48
2022/04/18 11:02:04;;;;;;;2.03;1.47;;;14.10;71.40;;;;;;5133070;27;20462;-49
2022/04/18 11:04:33;;;;;;;1.80;1.70;;;14.00;69.10;;;;;;5132719;27;20495;-48
2022/04/18 11:07:03;;;;;;;1.60;1.40;;;14.00;73.50;;;;;;5133132;27;20524;-49
2022/04/18 11:09:31;;;;;;;1.20;1.10;;;14.00;68.30;;;;;;5132945;27;20438;-48
2022/04/18 11:12:08;;;;;;;3.20;1.50;;;14.00;64.80;;;;;;5133026;27;20548;-49
2022/04/18 11:14:53;;;;;;;1.13;1.03;;;14.00;67.70;;;;;;5133002;27;20476;-48
2022/04/18 11:17:28;;;;;;;1.47;1.37;;;14.10;61.90;;;;;;5132980;27;20985;-48
2022/04/18 11:19:57;;;;;;;2.17;1.53;;;14.30;65.10;;;;;;5132421;27;20441;-49
2022/04/18 11:22:25;;;;;;;1.57;1.10;;;14.10;59.50;;;;;;5132527;27;20482;-48
2022/04/18 11:25:00;;;;;;;1.70;1.40;;;14.20;60.80;;;;;;5133052;27;20430;-48
2022/04/18 11:27:38;;;;;;;1.73;1.30;;;14.30;58.20;;;;;;5132877;27;20536;-50
2022/04/18 11:30:15;;;;;;;1.57;1.20;;;14.20;61.20;;;;;;5132099;27;20469;-49
2022/04/18 11:32:44;;;;;;;3.20;2.37;;;14.20;55.70;;;;;;5132642;27;20433;-49
2022/04/18 11:35:14;;;;;;;1.63;1.23;;;14.50;58.30;;;;;;5132338;27;20490;-49
2022/04/18 11:37:44;;;;;;;2.03;1.50;;;14.60;58.50;;;;;;5132543;27;20855;-49
2022/04/18 11:40:12;;;;;;;1.80;1.40;;;14.70;60.00;;;;;;5131783;27;20464;-49
2022/04/18 11:42:41;;;;;;;1.30;1.20;;;14.90;59.50;;;;;;5132274;27;20477;-48
2022/04/18 11:45:10;;;;;;;1.33;1.23;;;15.10;62.60;;;;;;5132109;27;20951;-48
2022/04/18 11:47:40;;;;;;;1.87;1.23;;;15.20;59.50;;;;;;5132269;27;20469;-49
2022/04/18 11:50:09;;;;;;;1.53;1.23;;;15.30;59.80;;;;;;5132300;27;20465;-49
2022/04/18 11:52:39;;;;;;;1.30;1.20;;;15.50;58.00;;;;;;5131938;27;20477;-49
2022/04/18 11:55:08;;;;;;;1.13;0.90;;;15.60;60.10;;;;;;5132652;27;20553;-48
2022/04/18 11:57:36;;;;;;;1.30;0.90;;;15.70;59.00;;;;;;5132498;27;20473;-48
2022/04/18 12:00:05;;;;;;;2.43;1.00;;;15.60;55.90;;;;;;5132086;27;20458;-49
2022/04/18 12:08:05;;;;;;;1.00;0.70;;;15.40;53.90;;;;;;5131873;28;20425;-49
2022/04/18 12:10:35;;;;;;;1.30;0.80;;;15.40;58.20;;;;;;5132095;28;20461;-48
2022/04/18 12:13:06;;;;;;;2.53;0.97;;;15.30;54.20;;;;;;5131165;28;20936;-48
2022/04/18 12:15:33;;;;;;;1.37;1.03;;;15.20;55.70;;;;;;5132005;27;20481;-49
2022/04/18 12:18:08;;;;;;;1.03;0.83;;;15.30;56.80;;;;;;5131952;28;20520;-48
2022/04/18 12:20:36;;;;;;;1.33;1.07;;;15.20;56.00;;;;;;5131488;28;20469;-48
2022/04/18 12:23:04;;;;;;;1.10;1.00;;;15.20;54.20;;;;;;5131911;27;20484;-50
2022/04/18 12:25:33;;;;;;;1.07;0.77;;;15.20;56.20;;;;;;5132174;27;20872;-48
2022/04/18 12:28:01;;;;;;;1.57;1.10;;;15.30;56.80;;;;;;5131947;28;20437;-48
2022/04/18 12:30:28;;;;;;;1.40;0.90;;;15.30;54.50;;;;;;5132078;28;20545;-49
2022/04/18 12:32:55;;;;;;;1.30;0.90;;;15.30;56.70;;;;;;5131522;28;20469;-49
2022/04/18 12:35:39;;;;;;;1.10;0.93;;;15.30;54.70;;;;;;5131697;28;20542;-48
2022/04/18 12:38:09;;;;;;;1.30;1.20;;;15.30;55.70;;;;;;5131767;27;20480;-48
2022/04/18 12:40:38;;;;;;;1.50;0.93;;;15.30;53.20;;;;;;5131167;27;20564;-48
2022/04/18 12:43:07;;;;;;;1.20;1.10;;;15.30;56.10;;;;;;5133604;27;20445;-48
2022/04/18 12:45:51;;;;;;;1.20;0.83;;;15.30;52.90;;;;;;5135982;27;20446;-48
2022/04/18 12:48:22;;;;;;;1.20;0.90;;;15.40;54.20;;;;;;5135872;27;20470;-48
2022/04/18 12:50:50;;;;;;;1.20;1.00;;;15.30;53.70;;;;;;5135549;27;20457;-49
2022/04/18 12:53:18;;;;;;;1.03;0.70;;;15.40;55.10;;;;;;5135609;27;20495;-49
2022/04/18 12:55:45;;;;;;;1.47;0.90;;;15.40;56.10;;;;;;5135673;27;20873;-48
2022/04/18 12:58:21;;;;;;;1.10;0.83;;;15.40;52.60;;;;;;5135996;27;20442;-48
2022/04/18 13:00:50;;;;;;;1.40;1.10;;;15.30;52.60;;;;;;5135732;27;20962;-48
2022/04/18 13:03:18;;;;;;;1.23;0.90;;;15.30;53.10;;;;;;5135261;27;20512;-49
2022/04/18 13:05:47;;;;;;;0.90;0.77;;;15.30;50.40;;;;;;5135784;27;20476;-50
2022/04/18 13:08:16;;;;;;;5.20;1.40;;;15.30;54.80;;;;;;5135442;27;20470;-48
2022/04/18 13:10:46;;;;;;;0.87;0.80;;;15.40;55.40;;;;;;5135301;27;20465;-48
2022/04/18 13:13:14;;;;;;;1.13;1.00;;;15.30;52.80;;;;;;5134586;27;20437;-48
2022/04/18 13:15:42;;;;;;;1.70;1.23;;;15.30;56.00;;;;;;5134965;27;20437;-48
2022/04/18 13:18:10;;;;;;;2.20;1.23;;;15.30;54.00;;;;;;5135094;27;20892;-49
2022/04/18 13:20:39;;;;;;;0.80;0.70;;;15.30;52.80;;;;;;5135122;27;20510;-49
2022/04/18 13:23:07;;;;;;;1.43;0.83;;;15.40;55.00;;;;;;5135106;27;20453;-48